Time;durP1;ratioP1;P1;durP2;ratioP2;P2;SDS_P1;SDS_P2;PMS_P1;PMS_P2;Temp;Humidity;BMP_temperature;BMP_pressure;BME280_temperature;BME280_humidity;BME280_pressure;Samples;Min_cycle;Max_cycle;Signal;HPM_P1;HPM_P2
2022/08/31 00:04:39;;;;;;;;;8.25;6.75;;;;;22.03;51.15;101675.03;5110976;27;49455;-75
2022/08/31 00:07:04;;;;;;;;;4.00;4.00;;;;;21.89;50.79;101653.81;5111223;27;49505;-76
2022/08/31 00:09:31;;;;;;;;;4.00;4.00;;;;;21.74;50.85;101655.78;5111254;27;49509;-76
2022/08/31 00:11:57;;;;;;;;;6.50;5.25;;;;;21.21;50.58;101553.00;5109929;27;50746;-76
2022/08/31 00:14:25;;;;;;;;;8.00;6.75;;;;;21.53;50.71;101620.38;5126280;27;49560;-76
2022/08/31 00:16:51;;;;;;;;;6.50;5.75;;;;;21.85;50.43;101672.59;5110938;27;49653;-77
2022/08/31 00:19:16;;;;;;;;;5.25;5.25;;;;;21.36;50.66;101585.81;5121792;27;49713;-77
2022/08/31 00:21:42;;;;;;;;;5.75;5.25;;;;;21.21;50.98;101577.03;5102696;27;49754;-75
2022/08/31 00:24:08;;;;;;;;;7.00;5.50;;;;;21.77;51.51;101659.28;5096172;27;49885;-76
2022/08/31 00:26:34;;;;;;;;;8.00;7.25;;;;;21.65;51.94;101636.28;5110352;27;49470;-77
2022/08/31 00:28:59;;;;;;;;;6.25;4.00;;;;;21.23;50.69;101589.50;5096887;27;49765;-76
2022/08/31 00:31:25;;;;;;;;;6.00;6.00;;;;;21.49;50.93;101639.13;5109082;27;50279;-76
2022/08/31 00:33:51;;;;;;;;;6.00;5.25;;;;;21.53;50.84;101654.22;5109217;27;49470;-76
2022/08/31 00:36:19;;;;;;;;;5.00;5.00;;;;;21.47;51.24;101646.28;5108289;27;49534;-77
2022/08/31 00:38:44;;;;;;;;;5.25;5.25;;;;;21.01;51.28;101575.47;5110227;27;49365;-76
2022/08/31 00:41:10;;;;;;;;;4.75;4.75;;;;;21.38;51.61;101626.75;5107739;27;50365;-76
2022/08/31 00:43:52;;;;;;;;;8.00;6.25;;;;;21.35;51.46;101617.91;5105712;27;49512;-76
2022/08/31 00:46:23;;;;;;;;;5.50;4.00;;;;;21.54;51.77;101656.00;5108470;27;49395;-78
2022/08/31 00:49:05;;;;;;;;;6.75;6.75;;;;;21.48;51.32;101654.25;5104952;27;49670;-77
2022/08/31 00:51:38;;;;;;;;;6.00;6.00;;;;;21.30;51.24;101635.75;5107701;27;50457;-77
2022/08/31 00:54:06;;;;;;;;;5.25;5.00;;;;;21.18;50.79;101638.50;5108295;27;49467;-76
2022/08/31 00:56:34;;;;;;;;;2.25;2.25;;;;;20.91;51.01;101592.44;5106165;27;49669;-77
2022/08/31 00:58:59;;;;;;;;;4.25;4.25;;;;;21.11;51.23;101640.31;5106867;27;49695;-77
2022/08/31 01:01:26;;;;;;;;;5.00;4.25;;;;;21.18;51.36;101667.88;5105240;27;50499;-76
2022/08/31 01:03:52;;;;;;;;;5.50;4.50;;;;;20.61;51.68;101582.91;5087201;27;49428;-77
2022/08/31 01:06:18;;;;;;;;;6.50;5.00;;;;;20.17;51.70;101514.75;5104291;27;49860;-77
2022/08/31 01:08:45;;;;;;;;;6.25;5.25;;;;;20.84;51.61;101594.31;5102737;27;49809;-77
2022/08/31 01:11:12;;;;;;;;;4.00;4.00;;;;;20.65;51.86;101573.97;5107856;27;50459;-77
2022/08/31 01:13:37;;;;;;;;;5.25;4.50;;;;;21.19;51.99;101675.88;5107489;27;49723;-77
2022/08/31 01:16:09;;;;;;;;;5.50;4.50;;;;;21.07;51.79;101668.84;5107208;27;49495;-77
2022/08/31 01:18:36;;;;;;;;;6.75;6.75;;;;;20.58;51.64;101598.97;5099648;27;49738;-77
2022/08/31 01:21:41;;;;;;;;;7.00;4.75;;;;;21.00;52.26;101660.91;5085173;27;49597;-77
2022/08/31 01:24:08;;;;;;;;;5.75;5.75;;;;;20.99;52.03;101651.13;5061204;27;49684;-77
2022/08/31 01:26:36;;;;;;;;;5.00;4.00;;;;;20.63;52.39;101605.13;5085914;27;49934;-76
2022/08/31 01:29:06;;;;;;;;;6.50;5.00;;;;;20.25;52.29;101531.56;5087444;27;49521;-77
2022/08/31 01:31:41;;;;;;;;;6.50;5.00;;;;;20.85;52.67;101624.56;5087018;27;50148;-75
2022/08/31 01:34:06;;;;;;;;;4.00;3.25;;;;;21.07;52.74;101668.84;5085855;27;49472;-76
2022/08/31 01:36:34;;;;;;;;;6.50;5.00;;;;;20.58;52.71;101594.50;5087577;27;49385;-75
2022/08/31 01:39:03;;;;;;;;;5.00;5.00;;;;;20.91;52.97;101682.31;5087762;27;49670;-76
2022/08/31 01:41:28;;;;;;;;;7.25;7.00;;;;;20.05;52.95;101506.81;5087470;27;50483;-75
2022/08/31 01:43:54;;;;;;;;;6.00;4.75;;;;;20.73;52.91;101630.84;5088141;27;49681;-76
2022/08/31 01:46:20;;;;;;;;;5.25;5.00;;;;;20.84;52.81;101652.09;5086553;27;49370;-76
2022/08/31 01:48:46;;;;;;;;;5.00;5.00;;;;;20.93;53.23;101667.16;5085396;27;49608;-76
2022/08/31 01:51:15;;;;;;;;;6.50;5.00;;;;;20.70;53.24;101636.22;5086529;27;49814;-77
2022/08/31 01:53:42;;;;;;;;;5.75;5.75;;;;;20.89;53.18;101682.34;5083974;27;49623;-77
2022/08/31 01:56:13;;;;;;;;;5.25;5.25;;;;;20.82;52.86;101667.25;5087487;27;49507;-77
2022/08/31 01:58:39;;;;;;;;;4.25;3.25;;;;;20.82;53.60;101669.91;5086291;27;49415;-77
2022/08/31 02:01:06;;;;;;;;;7.00;7.00;;;;;20.70;53.38;101656.66;5082280;27;51540;-77
2022/08/31 02:03:31;;;;;;;;;5.75;5.75;;;;;20.26;53.83;101591.09;5086178;27;49343;-76
2022/08/31 02:05:57;;;;;;;;;4.75;4.75;;;;;20.56;53.17;101647.00;5086164;27;50274;-76
2022/08/31 02:08:22;;;;;;;;;8.50;5.00;;;;;20.19;53.54;101589.41;5086310;27;49514;-75
2022/08/31 02:10:47;;;;;;;;;9.00;5.75;;;;;20.53;53.67;101656.75;5086502;27;50490;-75
2022/08/31 02:13:13;;;;;;;;;4.25;4.25;;;;;20.61;53.84;101673.63;5087593;27;49703;-75
2022/08/31 02:15:39;;;;;;;;;4.00;4.00;;;;;20.36;53.64;101632.81;5087012;27;49525;-75
2022/08/31 02:18:05;;;;;;;;;4.75;4.75;;;;;20.10;53.98;101570.78;5086946;27;49611;-76
2022/08/31 02:20:30;;;;;;;;;4.00;4.00;;;;;20.52;54.13;101653.22;5085777;27;50353;-76
2022/08/31 02:22:56;;;;;;;;;7.50;6.25;;;;;20.30;54.68;101619.53;5081669;27;49750;-76
2022/08/31 02:25:21;;;;;;;;;6.00;5.25;;;;;20.13;54.66;101622.28;5086432;27;49497;-75
2022/08/31 02:27:49;;;;;;;;;6.00;5.00;;;;;19.94;55.02;101581.50;5086965;27;49565;-75
2022/08/31 02:30:17;;;;;;;;;5.25;4.50;;;;;20.25;55.41;101635.56;5086086;27;51013;-76
2022/08/31 02:32:43;;;;;;;;;3.50;3.50;;;;;20.45;55.42;101694.16;5086455;27;49539;-75
2022/08/31 02:35:09;;;;;;;;;6.50;6.50;;;;;19.26;55.32;101501.84;5088697;27;49328;-75
2022/08/31 02:37:34;;;;;;;;;6.25;5.50;;;;;20.40;55.68;101681.72;5108534;27;49862;-75
2022/08/31 02:40:00;;;;;;;;;5.00;5.00;;;;;19.60;55.44;101551.47;5107576;27;51605;-75
2022/08/31 02:42:25;;;;;;;;;4.50;4.50;;;;;20.42;55.63;101675.47;5107791;27;49561;-76
2022/08/31 02:44:50;;;;;;;;;5.00;5.00;;;;;20.47;55.65;101697.72;5101658;27;49611;-77
2022/08/31 02:47:16;;;;;;;;;7.50;6.00;;;;;19.89;56.04;101598.44;5105958;27;49798;-75
2022/08/31 02:49:41;;;;;;;;;7.75;7.25;;;;;20.16;56.24;101646.25;5100719;27;50480;-76
2022/08/31 02:52:07;;;;;;;;;5.00;5.00;;;;;20.02;56.25;101637.44;5105369;27;50049;-75
2022/08/31 02:54:32;;;;;;;;;8.00;4.25;;;;;19.65;56.07;101592.28;5105401;27;49585;-75
2022/08/31 02:56:58;;;;;;;;;5.00;5.00;;;;;19.76;56.60;101602.91;5105718;27;49529;-75
2022/08/31 02:59:23;;;;;;;;;5.50;5.50;;;;;20.26;56.52;101705.75;5105028;27;49830;-76
2022/08/31 03:01:52;;;;;;;;;4.75;4.50;;;;;19.89;56.38;101635.75;5105942;27;49581;-75
2022/08/31 03:04:18;;;;;;;;;7.00;6.00;;;;;20.22;56.40;101704.91;5105720;27;49731;-77
2022/08/31 03:06:43;;;;;;;;;6.25;5.25;;;;;20.20;56.37;101700.47;5106103;27;49268;-77
2022/08/31 03:09:09;;;;;;;;;4.75;4.75;;;;;20.00;56.34;101664.13;5105508;27;49731;-76
2022/08/31 03:11:35;;;;;;;;;5.00;5.00;;;;;20.01;56.60;101671.22;5105466;27;49932;-75
2022/08/31 03:14:00;;;;;;;;;5.50;4.25;;;;;20.13;56.87;101704.03;5105952;27;49540;-75
2022/08/31 03:16:25;;;;;;;;;7.25;7.25;;;;;19.47;56.96;101599.41;5105348;27;49635;-76
2022/08/31 03:18:51;;;;;;;;;6.00;6.00;;;;;19.23;56.64;101581.72;5104961;27;50078;-76
2022/08/31 03:21:16;;;;;;;;;6.50;6.50;;;;;19.57;57.00;101615.38;5103698;27;49709;-76
2022/08/31 03:23:42;;;;;;;;;6.00;6.00;;;;;19.88;56.96;101680.16;5105753;27;49577;-75
2022/08/31 03:26:07;;;;;;;;;6.00;6.00;;;;;18.92;57.20;101517.91;5107246;27;49515;-76
2022/08/31 03:28:35;;;;;;;;;6.25;5.00;;;;;19.33;57.40;101588.81;5109169;27;49472;-76
2022/08/31 03:31:00;;;;;;;;;9.00;7.25;;;;;19.42;57.21;101610.97;5108579;27;49513;-76
2022/08/31 03:33:26;;;;;;;;;5.50;5.50;;;;;19.96;57.21;101710.31;5108717;27;49703;-78
2022/08/31 03:35:52;;;;;;;;;9.00;7.00;;;;;19.93;57.30;101713.00;5109014;27;49683;-78
2022/08/31 03:38:18;;;;;;;;;7.25;7.25;;;;;19.54;57.25;101650.00;5109153;27;50023;-78
2022/08/31 03:40:44;;;;;;;;;7.50;7.50;;;;;19.72;57.90;101686.41;5108969;27;49834;-78
2022/08/31 03:43:10;;;;;;;;;4.25;4.25;;;;;19.47;57.60;101650.00;5103865;27;49833;-79
2022/08/31 03:45:40;;;;;;;;;4.75;4.75;;;;;19.57;57.62;101675.75;5108380;27;49602;-77
2022/08/31 03:48:06;;;;;;;;;7.00;6.00;;;;;19.20;57.65;101608.31;5105597;27;49759;-79
2022/08/31 03:50:33;;;;;;;;;6.50;5.50;;;;;18.97;57.61;101574.66;5107983;27;49698;-77
2022/08/31 03:53:02;;;;;;;;;5.00;5.00;;;;;19.32;57.75;101634.97;5108444;27;49581;-78
2022/08/31 03:55:29;;;;;;;;;4.50;4.50;;;;;19.45;57.68;101674.84;5095236;27;49915;-77
2022/08/31 03:57:55;;;;;;;;;5.00;5.00;;;;;19.58;57.89;101696.19;5092822;27;51140;-77
2022/08/31 04:00:21;;;;;;;;;6.75;5.50;;;;;19.45;57.91;101684.63;5092653;27;49948;-77
2022/08/31 04:02:47;;;;;;;;;3.75;3.75;;;;;19.19;57.78;101634.06;5092779;27;50206;-78
2022/08/31 04:05:13;;;;;;;;;7.50;6.25;;;;;19.48;58.30;101683.72;5092966;27;50389;-78
2022/08/31 04:07:39;;;;;;;;;7.75;6.00;;;;;19.51;57.89;101703.28;5092623;27;49936;-78
2022/08/31 04:10:06;;;;;;;;;8.00;6.75;;;;;19.48;58.06;101689.06;5103921;27;49789;-78
2022/08/31 04:12:31;;;;;;;;;6.50;5.75;;;;;19.59;58.07;101712.19;5108236;27;49576;-78
2022/08/31 04:14:57;;;;;;;;;6.00;6.00;;;;;19.51;58.28;101703.28;5109087;27;49731;-78
2022/08/31 04:17:22;;;;;;;;;6.75;5.75;;;;;19.20;58.35;101651.81;5108632;27;50968;-76
2022/08/31 04:19:47;;;;;;;;;7.00;5.75;;;;;19.38;58.55;101696.16;5107769;27;49619;-78
2022/08/31 04:22:13;;;;;;;;;7.50;7.00;;;;;19.11;58.17;101660.69;5107927;27;49354;-78
2022/08/31 04:24:38;;;;;;;;;5.75;5.75;;;;;19.44;58.43;101718.34;5107555;27;49580;-78
2022/08/31 04:27:04;;;;;;;;;10.00;6.75;;;;;19.05;58.61;101658.03;5106560;27;50368;-78
2022/08/31 04:29:29;;;;;;;;;10.25;8.00;;;;;19.19;58.85;101702.38;5108724;27;49738;-79
2022/08/31 04:31:54;;;;;;;;;7.50;6.25;;;;;18.87;58.88;101642.94;5108555;27;49645;-77
2022/08/31 04:34:20;;;;;;;;;6.50;6.50;;;;;19.22;59.20;101711.28;5109239;27;49697;-78
2022/08/31 04:36:45;;;;;;;;;7.50;7.00;;;;;18.73;59.21;101631.41;5107707;27;50018;-80
2022/08/31 04:39:12;;;;;;;;;7.00;7.00;;;;;18.93;59.03;101663.34;5104303;27;49615;-77
2022/08/31 04:41:39;;;;;;;;;6.75;6.75;;;;;19.27;59.29;101727.22;5108214;27;49434;-77
2022/08/31 04:44:04;;;;;;;;;7.50;7.00;;;;;19.05;59.51;101708.59;5108978;27;49336;-77
2022/08/31 04:46:35;;;;;;;;;8.00;8.00;;;;;19.24;59.71;101728.13;5107349;27;50388;-77
2022/08/31 04:49:01;;;;;;;;;7.75;5.75;;;;;19.06;59.33;101697.06;5107443;27;49503;-77
2022/08/31 04:51:34;;;;;;;;;7.25;7.25;;;;;18.73;59.40;101641.16;5107692;27;49556;-79
2022/08/31 04:54:00;;;;;;;;;6.00;5.75;;;;;18.64;59.38;101627.81;5104643;27;49532;-78
2022/08/31 04:56:29;;;;;;;;;9.00;8.00;;;;;19.09;59.58;101714.78;5108162;27;50152;-77
2022/08/31 04:58:57;;;;;;;;;7.50;6.75;;;;;18.75;59.56;101642.94;5102923;27;49669;-78
2022/08/31 05:01:25;;;;;;;;;9.25;6.50;;;;;19.07;59.87;101700.59;5107640;27;49352;-78
2022/08/31 05:03:54;;;;;;;;;10.75;9.75;;;;;18.79;59.67;101649.13;5105103;27;49943;-79
2022/08/31 05:06:22;;;;;;;;;9.00;6.00;;;;;19.14;59.90;101715.69;5092042;27;49709;-78
2022/08/31 05:08:52;;;;;;;;;9.00;7.75;;;;;18.57;59.67;101616.28;5096456;27;49646;-78
2022/08/31 05:11:19;;;;;;;;;8.25;8.00;;;;;19.04;59.66;101716.56;5097804;27;49710;-78
2022/08/31 05:13:44;;;;;;;;;7.50;7.50;;;;;19.04;60.13;101703.28;5088111;27;49763;-77
2022/08/31 05:16:11;;;;;;;;;7.00;7.00;;;;;19.07;60.03;101722.78;5087519;27;61217;-80
2022/08/31 05:18:39;;;;;;;;;6.75;6.75;;;;;18.50;60.21;101620.69;5087058;27;49631;-79
2022/08/31 05:21:14;;;;;;;;;6.50;5.75;;;;;18.60;60.49;101645.53;5090341;27;49622;-80
2022/08/31 05:23:39;;;;;;;;;5.75;5.00;;;;;18.99;60.30;101710.34;5087304;27;49322;-79
2022/08/31 05:26:06;;;;;;;;;6.75;6.75;;;;;18.60;60.34;101649.06;5087254;27;49518;-76
2022/08/31 05:28:35;;;;;;;;;6.00;5.00;;;;;18.99;60.30;101715.66;5087282;27;49332;-78
2022/08/31 05:31:02;;;;;;;;;7.75;6.50;;;;;18.79;60.15;101687.25;5088186;27;49650;-77
2022/08/31 05:33:28;;;;;;;;;8.75;6.00;;;;;18.69;60.06;101655.31;5091017;27;49675;-78
2022/08/31 05:35:54;;;;;;;;;8.50;8.50;;;;;19.08;60.09;101735.19;5086391;27;49836;-75
2022/08/31 05:38:20;;;;;;;;;8.00;7.25;;;;;18.97;60.28;101725.44;5087430;27;49202;-77
2022/08/31 05:40:52;;;;;;;;;5.00;5.00;;;;;18.83;59.79;101691.72;5087937;27;49524;-77
2022/08/31 05:43:18;;;;;;;;;6.25;6.00;;;;;18.64;60.03;101663.28;5088251;27;49713;-77
2022/08/31 05:45:44;;;;;;;;;9.00;5.50;;;;;19.07;60.09;101729.88;5098451;27;49633;-78
2022/08/31 05:48:09;;;;;;;;;8.50;6.75;;;;;18.39;60.04;101614.47;5105894;27;53829;-78
2022/08/31 05:50:36;;;;;;;;;7.75;6.25;;;;;18.47;60.09;101644.63;5106877;27;49530;-77
2022/08/31 05:53:02;;;;;;;;;5.75;5.75;;;;;18.86;60.31;101705.03;5107457;27;49336;-77
2022/08/31 05:55:28;;;;;;;;;3.50;3.00;;;;;18.53;60.22;101651.75;5106798;27;50122;-78
2022/08/31 05:57:53;;;;;;;;;7.00;7.00;;;;;17.97;60.24;101567.41;5105779;27;49690;-78
2022/08/31 06:00:19;;;;;;;;;7.50;7.50;;;;;18.96;60.19;101713.00;5106220;27;49362;-77
2022/08/31 06:02:44;;;;;;;;;8.50;7.00;;;;;18.57;60.09;101627.81;5106841;27;50074;-77
2022/08/31 06:05:09;;;;;;;;;8.00;7.00;;;;;18.66;60.13;101648.25;5106208;27;50957;-77
2022/08/31 06:07:35;;;;;;;;;9.25;8.00;;;;;19.08;60.35;101718.34;5081583;27;49697;-78
2022/08/31 06:10:00;;;;;;;;;5.25;5.25;;;;;19.17;60.00;101734.31;5087058;27;49522;-77
2022/08/31 06:12:26;;;;;;;;;9.00;7.75;;;;;19.07;60.18;101717.47;5086645;27;49773;-75
2022/08/31 06:14:52;;;;;;;;;7.75;7.75;;;;;19.00;60.46;101697.03;5097552;27;50414;-74
2022/08/31 06:17:18;;;;;;;;;6.25;6.25;;;;;19.15;60.16;101723.69;5095298;27;49106;-76
2022/08/31 06:19:43;;;;;;;;;6.75;6.00;;;;;18.79;60.31;101663.31;5097229;27;50002;-75
2022/08/31 06:22:09;;;;;;;;;8.25;8.25;;;;;19.31;60.11;101732.56;5089623;27;49822;-76
2022/08/31 06:24:37;;;;;;;;;12.00;10.75;;;;;19.31;59.80;101727.25;5096286;27;49915;-74
2022/08/31 06:27:06;;;;;;;;;7.75;7.75;;;;;19.24;59.75;101722.81;5095725;27;49439;-72
2022/08/31 06:29:32;;;;;;;;;8.00;6.00;;;;;19.16;59.46;101697.94;5094709;27;49887;-71
2022/08/31 06:31:59;;;;;;;;;7.25;7.25;;;;;19.37;59.28;101742.31;5100297;27;49530;-74
2022/08/31 06:34:27;;;;;;;;;10.50;7.50;;;;;19.32;59.15;101730.78;5097177;27;51628;-73
2022/08/31 06:36:53;;;;;;;;;5.50;5.50;;;;;19.33;58.67;101722.81;5095251;27;49843;-72
2022/08/31 06:39:18;;;;;;;;;6.75;6.00;;;;;19.34;58.92;101713.94;5098818;27;49347;-76
2022/08/31 06:41:44;;;;;;;;;5.50;3.50;;;;;19.52;58.74;101734.34;5094499;27;49515;-72
2022/08/31 06:44:11;;;;;;;;;7.25;7.25;;;;;19.48;59.09;101731.66;5094474;27;57573;-71
2022/08/31 06:46:39;;;;;;;;;5.75;4.75;;;;;19.57;58.89;101743.22;5093000;27;49726;-70
2022/08/31 06:49:05;;;;;;;;;8.50;7.00;;;;;19.61;58.86;101747.69;5079780;27;49860;-70
2022/08/31 06:51:35;;;;;;;;;7.25;6.25;;;;;19.23;59.12;101672.22;5088751;27;49835;-68
2022/08/31 06:54:01;;;;;;;;;9.00;7.75;;;;;19.56;58.86;101730.81;5096530;27;50242;-68
2022/08/31 06:56:26;;;;;;;;;9.50;8.25;;;;;19.64;59.08;101745.00;5098650;27;49767;-67
2022/08/31 06:58:53;;;;;;;;;9.25;9.25;;;;;19.65;58.38;101729.91;5097517;27;49476;-68
2022/08/31 07:01:21;;;;;;;;;7.00;5.50;;;;;19.73;58.29;101737.00;5092986;27;50118;-68
2022/08/31 07:03:48;;;;;;;;;8.25;8.25;;;;;19.51;57.90;101726.34;5091725;27;50126;-68
2022/08/31 07:06:16;;;;;;;;;8.25;7.50;;;;;19.72;57.60;101751.22;5091530;27;49440;-69
2022/08/31 07:08:43;;;;;;;;;7.00;6.75;;;;;19.59;57.65;101727.25;5090070;27;49191;-68
2022/08/31 07:11:19;;;;;;;;;11.00;9.75;;;;;19.64;57.92;101747.66;5091141;27;49840;-68
2022/08/31 07:13:46;;;;;;;;;8.25;8.25;;;;;19.76;57.53;101751.22;5092298;27;51597;-67
2022/08/31 07:16:14;;;;;;;;;10.00;7.75;;;;;19.81;57.48;101760.09;5091832;27;49234;-69
2022/08/31 07:18:41;;;;;;;;;8.00;6.75;;;;;19.27;57.45;101666.00;5081624;27;49889;-66
2022/08/31 07:21:16;;;;;;;;;8.25;7.75;;;;;19.31;57.61;101675.78;5090679;27;49351;-67
2022/08/31 07:23:42;;;;;;;;;10.00;8.75;;;;;19.66;57.27;101731.69;5092485;27;50363;-67
2022/08/31 07:26:10;;;;;;;;;7.75;7.75;;;;;19.90;57.48;101749.44;5087956;27;49509;-66
2022/08/31 07:28:37;;;;;;;;;10.00;9.00;;;;;19.85;57.49;101721.88;5076879;27;49962;-67
2022/08/31 07:31:04;;;;;;;;;9.25;9.25;;;;;19.86;56.86;101723.66;5075127;27;49748;-68
2022/08/31 07:33:37;;;;;;;;;8.50;8.50;;;;;20.00;57.17;101736.06;5075318;27;49873;-68
2022/08/31 07:36:12;;;;;;;;;8.25;6.75;;;;;20.13;56.92;101742.25;5098607;27;49741;-67
2022/08/31 07:44:10;;;;;;;;;10.25;10.25;;;;;20.02;56.92;101736.06;5090531;27;49834;-67
2022/08/31 07:46:36;;;;;;;;;9.75;9.00;;;;;20.15;57.13;101747.56;5073166;27;49771;-69
2022/08/31 07:49:01;;;;;;;;;11.75;10.00;;;;;20.29;57.06;101759.97;5073147;27;49919;-69
2022/08/31 07:51:27;;;;;;;;;9.50;9.50;;;;;20.21;56.68;101719.13;5073498;27;50021;-68
2022/08/31 07:53:54;;;;;;;;;10.25;10.25;;;;;20.42;56.39;101743.94;5073064;27;50866;-66
2022/08/31 07:56:22;;;;;;;;;9.25;8.50;;;;;20.38;56.43;101743.06;5076529;27;49882;-66
2022/08/31 07:58:48;;;;;;;;;8.75;8.75;;;;;20.51;56.43;101760.81;5075549;27;49593;-66
2022/08/31 08:01:17;;;;;;;;;8.75;8.75;;;;;20.52;56.35;101735.03;5073471;27;49812;-66
2022/08/31 08:03:43;;;;;;;;;11.25;10.00;;;;;20.66;55.62;101743.84;5072564;27;50824;-67
2022/08/31 08:06:14;;;;;;;;;12.00;11.50;;;;;20.54;55.44;101723.44;5072968;27;49714;-66
2022/08/31 08:08:41;;;;;;;;;10.25;9.00;;;;;20.63;55.85;101734.97;5074392;27;49844;-68
2022/08/31 08:11:08;;;;;;;;;9.50;7.75;;;;;20.68;55.39;101730.50;5080550;27;49678;-67
2022/08/31 08:13:34;;;;;;;;;15.50;12.25;;;;;20.80;55.24;101738.44;5072313;27;50897;-67
2022/08/31 08:16:00;;;;;;;;;13.00;13.00;;;;;20.82;55.27;101737.53;5072901;27;49721;-68
2022/08/31 08:18:25;;;;;;;;;13.50;11.00;;;;;20.78;55.28;101729.56;5073037;27;49664;-65
2022/08/31 08:20:51;;;;;;;;;11.00;10.25;;;;;20.88;55.21;101730.38;5072905;27;50098;-69
2022/08/31 08:23:18;;;;;;;;;11.00;11.00;;;;;20.89;55.29;101734.81;5072438;27;51082;-69
2022/08/31 08:25:45;;;;;;;;;14.25;13.25;;;;;20.87;55.05;101710.81;5072595;27;49963;-66
2022/08/31 08:28:17;;;;;;;;;9.00;7.75;;;;;20.75;54.96;101694.88;5072584;27;49911;-67
2022/08/31 08:30:43;;;;;;;;;12.75;10.50;;;;;20.89;55.04;101708.13;5073161;27;49988;-69
2022/08/31 08:33:09;;;;;;;;;11.75;10.00;;;;;20.87;54.70;101686.81;5072629;27;49811;-69
2022/08/31 08:35:34;;;;;;;;;11.50;11.50;;;;;21.02;54.85;101699.13;5072520;27;49745;-69
2022/08/31 08:38:00;;;;;;;;;10.75;10.00;;;;;21.14;54.66;101709.75;5071477;27;49728;-67
2022/08/31 08:40:41;;;;;;;;;12.25;11.50;;;;;21.22;54.59;101728.34;5072738;27;49824;-67
2022/08/31 08:43:15;;;;;;;;;11.00;11.00;;;;;21.25;54.21;101704.31;5072271;27;49669;-63
2022/08/31 08:45:43;;;;;;;;;11.00;10.75;;;;;21.18;53.98;101678.56;5072275;27;49858;-63
2022/08/31 08:48:12;;;;;;;;;13.25;9.25;;;;;21.49;54.22;101720.16;5072488;27;49628;-64
2022/08/31 08:50:39;;;;;;;;;11.25;10.00;;;;;21.45;53.75;101699.72;5072529;27;49672;-64
2022/08/31 08:53:09;;;;;;;;;12.00;12.00;;;;;21.60;54.21;101720.03;5073085;27;49721;-64
2022/08/31 08:55:37;;;;;;;;;15.75;15.75;;;;;21.65;53.20;101705.75;5072306;27;49791;-66
2022/08/31 08:58:09;;;;;;;;;12.50;12.00;;;;;21.62;53.55;101716.47;5071916;27;49903;-64
2022/08/31 09:00:36;;;;;;;;;13.00;11.00;;;;;21.68;53.43;101705.72;5072153;27;50240;-65
2022/08/31 09:03:14;;;;;;;;;9.00;9.00;;;;;21.83;53.29;101720.72;5070565;27;51560;-64
2022/08/31 09:06:01;;;;;;;;;12.00;10.25;;;;;21.90;53.04;101717.06;5071782;27;49916;-66
2022/08/31 09:08:46;;;;;;;;;11.75;10.00;;;;;21.95;52.80;101709.88;5087353;27;49820;-66
2022/08/31 09:11:17;;;;;;;;;12.50;11.50;;;;;22.02;52.70;101710.72;5091691;27;49815;-66
2022/08/31 09:14:18;;;;;;;;;12.50;10.00;;;;;22.06;52.37;101708.88;5091426;27;50912;-67
2022/08/31 09:16:55;;;;;;;;;7.00;7.00;;;;;22.09;52.62;101701.72;5091422;27;49866;-66
2022/08/31 09:19:20;;;;;;;;;9.25;9.00;;;;;22.04;52.40;101678.59;5090271;27;50039;-65
2022/08/31 09:21:57;;;;;;;;;11.75;11.75;;;;;22.22;52.18;101681.09;5100804;27;49815;-73
2022/08/31 09:24:29;;;;;;;;;11.25;9.75;;;;;22.27;52.15;101692.59;5078572;27;51036;-65
2022/08/31 09:27:16;;;;;;;;;9.50;8.50;;;;;22.39;51.42;101692.47;5078566;27;50158;-66
2022/08/31 09:29:43;;;;;;;;;8.00;8.00;;;;;22.45;51.84;101695.03;5085603;27;50037;-65
2022/08/31 09:32:15;;;;;;;;;10.25;10.25;;;;;22.41;51.31;101685.28;5091419;27;49812;-66
2022/08/31 09:34:41;;;;;;;;;11.50;11.00;;;;;22.41;51.19;101674.59;5090733;27;51004;-66
2022/08/31 09:37:15;;;;;;;;;8.75;8.75;;;;;22.50;51.08;101687.84;5091048;27;49813;-65
2022/08/31 09:39:46;;;;;;;;;10.50;9.25;;;;;22.35;51.04;101653.25;5091280;27;49699;-67
2022/08/31 09:42:36;;;;;;;;;8.75;8.00;;;;;22.65;51.13;101689.41;5091492;27;49807;-67
2022/08/31 09:45:10;;;;;;;;;9.75;9.75;;;;;22.73;50.74;101682.16;5090532;27;51092;-64
2022/08/31 09:47:54;;;;;;;;;9.75;7.75;;;;;22.74;50.78;101659.81;5091206;27;49963;-66
2022/08/31 09:50:32;;;;;;;;;13.25;11.50;;;;;22.92;50.76;101665.84;5071333;27;49762;-66
2022/08/31 09:56:02;;;;;;;;;9.25;7.50;;;;;23.07;50.15;101677.19;5084526;27;50293;-66
2022/08/31 09:58:29;;;;;;;;;8.75;8.75;;;;;23.04;49.77;101658.47;5090988;27;49702;-65
2022/08/31 10:00:55;;;;;;;;;9.50;9.25;;;;;23.01;49.84;101657.66;5090836;27;49677;-66
2022/08/31 10:03:27;;;;;;;;;10.50;9.50;;;;;23.10;49.75;101665.53;5077409;27;50130;-66
2022/08/31 10:05:54;;;;;;;;;11.25;10.50;;;;;23.17;49.80;101663.66;5074802;27;50883;-67
2022/08/31 10:08:38;;;;;;;;;8.50;8.50;;;;;23.28;49.80;101656.31;5073428;27;49699;-72
2022/08/31 10:11:10;;;;;;;;;8.25;7.00;;;;;23.36;49.53;101649.03;5087112;27;49529;-76
2022/08/31 10:13:57;;;;;;;;;8.75;8.75;;;;;23.19;49.45;101602.91;5076342;27;50112;-70
2022/08/31 10:16:33;;;;;;;;;7.75;7.75;;;;;23.52;49.65;101646.94;5071127;27;50930;-69
2022/08/31 10:19:05;;;;;;;;;9.50;9.50;;;;;23.51;49.35;101646.06;5072798;27;49795;-70
2022/08/31 10:21:52;;;;;;;;;8.50;8.50;;;;;23.61;48.73;101641.44;5069370;27;49758;-70
2022/08/31 10:24:38;;;;;;;;;7.75;7.75;;;;;23.57;48.96;101615.59;5070979;27;49701;-69
2022/08/31 10:27:31;;;;;;;;;9.50;6.25;;;;;23.65;48.33;101625.28;5070809;27;50503;-69
2022/08/31 10:30:17;;;;;;;;;9.25;9.25;;;;;23.73;48.09;101635.81;5086521;27;49836;-71
2022/08/31 10:33:06;;;;;;;;;10.75;9.75;;;;;23.69;48.22;101624.28;5069992;27;49745;-69
2022/08/31 10:35:50;;;;;;;;;8.50;7.50;;;;;23.67;48.21;101607.38;5063492;27;50007;-69
2022/08/31 10:38:28;;;;;;;;;10.00;8.75;;;;;23.64;48.53;101603.84;5070677;27;50516;-67
2022/08/31 10:41:08;;;;;;;;;12.75;9.25;;;;;23.88;48.34;101634.66;5070615;27;50045;-68
2022/08/31 10:43:44;;;;;;;;;10.75;10.75;;;;;23.92;47.70;101629.19;5083926;27;49956;-67
2022/08/31 10:46:11;;;;;;;;;6.25;6.25;;;;;23.96;47.81;101624.66;5085998;27;50021;-70
2022/08/31 10:48:50;;;;;;;;;10.50;10.50;;;;;23.92;47.65;101607.72;5088005;27;49910;-76
2022/08/31 10:51:24;;;;;;;;;7.00;7.00;;;;;24.03;47.77;101610.22;5099879;27;49378;-67
2022/08/31 10:54:23;;;;;;;;;7.25;7.25;;;;;24.10;47.29;101594.84;5085844;27;49752;-68
2022/08/31 10:57:07;;;;;;;;;8.50;8.50;;;;;24.21;47.55;101604.41;5084096;27;49803;-68
2022/08/31 10:59:41;;;;;;;;;8.25;8.25;;;;;24.41;47.41;101614.72;5089727;27;49961;-69
2022/08/31 11:02:31;;;;;;;;;8.75;8.75;;;;;24.48;47.33;101619.03;5089838;27;49905;-66
2022/08/31 11:05:17;;;;;;;;;9.25;8.50;;;;;24.55;47.41;101609.94;5089624;27;49835;-67
2022/08/31 11:08:12;;;;;;;;;12.75;11.25;;;;;24.62;46.68;101615.16;5088204;27;49903;-67
2022/08/31 11:10:43;;;;;;;;;8.00;8.00;;;;;24.60;46.73;101600.88;5096199;27;51144;-75
2022/08/31 11:13:37;;;;;;;;;10.00;8.75;;;;;24.63;46.21;101604.38;5091773;27;49706;-67
2022/08/31 11:16:31;;;;;;;;;9.75;8.75;;;;;24.72;46.74;101614.03;5063226;27;50287;-68
2022/08/31 11:18:59;;;;;;;;;10.50;9.25;;;;;24.79;45.77;101607.56;5083892;27;49872;-67
2022/08/31 11:21:49;;;;;;;;;8.25;8.25;;;;;24.89;46.24;101609.09;5085474;27;50667;-67
2022/08/31 11:24:42;;;;;;;;;11.00;8.75;;;;;24.91;46.04;101618.03;5070353;27;49587;-67
2022/08/31 11:27:22;;;;;;;;;12.50;12.00;;;;;24.81;45.65;101600.38;5083438;27;50136;-67
2022/08/31 11:30:07;;;;;;;;;7.50;7.50;;;;;24.95;46.01;101610.75;5085295;27;49727;-68
2022/08/31 11:32:49;;;;;;;;;8.50;7.25;;;;;24.92;45.62;101594.72;5078374;27;50905;-67
2022/08/31 11:36:10;;;;;;;;;4.25;3.25;;;;;25.03;45.21;101598.06;5076031;27;49729;-67
2022/08/31 11:38:53;;;;;;;;;10.00;10.00;;;;;24.86;45.38;101560.84;5083263;27;49764;-67
2022/08/31 11:41:34;;;;;;;;;10.25;7.50;;;;;25.16;45.13;101609.34;5069800;27;49779;-67
2022/08/31 11:44:03;;;;;;;;;10.00;8.00;;;;;25.07;45.13;101581.78;5069603;27;50631;-66
2022/08/31 11:46:39;;;;;;;;;11.00;10.00;;;;;25.25;44.88;101593.88;5076338;27;49878;-67